Time;durP1;ratioP1;P1;durP2;ratioP2;P2;SDS_P1;SDS_P2;PMS_P1;PMS_P2;Temp;Humidity;BMP_temperature;BMP_pressure;BME280_temperature;BME280_humidity;BME280_pressure;Samples;Min_cycle;Max_cycle;Signal;HPM_P1;HPM_P2
2022/01/19 00:01:11;;;;;;;330.05;150.73;;;-1.80;99.90;;;;;;5112808;28;20062;-78
2022/01/19 00:03:39;;;;;;;262.35;123.68;;;-2.00;99.90;;;;;;5096866;28;20067;-77
2022/01/19 00:06:07;;;;;;;233.15;110.97;;;-2.10;99.90;;;;;;5096987;28;20052;-77
2022/01/19 00:08:34;;;;;;;251.68;122.40;;;-2.20;99.90;;;;;;5089682;28;20151;-76
2022/01/19 00:11:02;;;;;;;223.75;108.88;;;-2.20;99.90;;;;;;5091650;28;20071;-76
2022/01/19 00:13:31;;;;;;;210.52;98.82;;;-2.20;99.90;;;;;;5084519;28;20047;-77
2022/01/19 00:15:59;;;;;;;212.65;100.43;;;-2.20;99.90;;;;;;5078096;28;20044;-78
2022/01/19 00:18:27;;;;;;;232.82;109.88;;;-2.10;99.90;;;;;;5077141;28;20052;-78
2022/01/19 00:20:55;;;;;;;226.95;106.28;;;-2.20;99.90;;;;;;5076651;28;20064;-78
2022/01/19 00:23:23;;;;;;;247.02;114.68;;;-2.30;99.90;;;;;;5076147;28;20072;-78
2022/01/19 00:25:53;;;;;;;251.32;117.22;;;-2.40;99.90;;;;;;5060413;28;20522;-79
2022/01/19 00:28:21;;;;;;;289.00;134.55;;;-2.40;99.90;;;;;;5060519;28;20091;-77
2022/01/19 00:30:51;;;;;;;299.17;144.80;;;-2.30;99.90;;;;;;5059786;28;20103;-78
2022/01/19 00:33:19;;;;;;;327.20;160.48;;;-2.20;99.90;;;;;;5060316;28;20056;-77
2022/01/19 00:35:48;;;;;;;348.70;171.40;;;-2.20;99.90;;;;;;5068609;28;20053;-78
2022/01/19 00:38:16;;;;;;;321.85;158.82;;;-2.30;99.90;;;;;;5063414;28;20049;-79
2022/01/19 00:40:45;;;;;;;325.50;157.80;;;-2.30;99.90;;;;;;5062779;28;20091;-78
2022/01/19 00:43:13;;;;;;;346.23;177.27;;;-2.30;99.90;;;;;;5062762;28;20037;-78
2022/01/19 00:45:41;;;;;;;359.88;174.93;;;-2.30;99.90;;;;;;5063127;28;20095;-77
2022/01/19 00:48:10;;;;;;;348.20;169.95;;;-2.30;99.90;;;;;;5065080;28;20105;-78
2022/01/19 00:50:39;;;;;;;346.92;166.32;;;-2.20;99.90;;;;;;5058930;28;20048;-77
2022/01/19 00:53:07;;;;;;;342.90;169.93;;;-2.20;99.90;;;;;;5058705;28;20491;-78
2022/01/19 00:55:34;;;;;;;328.60;157.57;;;-2.20;99.90;;;;;;5057249;28;20045;-77
2022/01/19 00:58:02;;;;;;;328.00;160.25;;;-2.30;99.90;;;;;;5058978;28;20040;-79
2022/01/19 01:00:30;;;;;;;323.17;160.75;;;-2.30;99.90;;;;;;5060914;28;20037;-79
2022/01/19 01:02:57;;;;;;;326.55;157.27;;;-2.40;99.90;;;;;;5058667;28;20045;-79
2022/01/19 01:05:27;;;;;;;299.55;146.10;;;-2.40;99.90;;;;;;5058173;28;20056;-78
2022/01/19 01:07:55;;;;;;;259.10;127.78;;;-2.50;99.90;;;;;;5055870;28;20583;-78
2022/01/19 01:10:23;;;;;;;247.38;118.25;;;-2.50;99.90;;;;;;5079071;28;20075;-78
2022/01/19 01:12:53;;;;;;;292.55;142.93;;;-2.40;99.90;;;;;;5082331;28;20056;-79
2022/01/19 01:15:36;;;;;;;347.63;168.63;;;-2.50;99.90;;;;;;5062463;28;20040;-77
2022/01/19 01:18:19;;;;;;;277.55;134.88;;;-2.60;99.90;;;;;;5078966;28;20546;-77
2022/01/19 01:20:50;;;;;;;253.63;124.55;;;-2.60;99.90;;;;;;5059497;28;20068;-79
2022/01/19 01:23:20;;;;;;;221.18;108.03;;;-2.50;99.90;;;;;;5070549;28;20040;-76
2022/01/19 01:25:48;;;;;;;208.15;105.72;;;-2.50;99.90;;;;;;5061848;28;20454;-78
2022/01/19 01:28:16;;;;;;;220.07;108.07;;;-2.50;99.90;;;;;;5060682;28;20060;-78
2022/01/19 01:30:44;;;;;;;203.02;97.13;;;-2.60;99.90;;;;;;5061232;28;20071;-78
2022/01/19 01:33:13;;;;;;;199.73;99.43;;;-2.60;99.90;;;;;;5062747;28;20045;-79
2022/01/19 01:35:41;;;;;;;224.63;110.25;;;-2.60;99.90;;;;;;5063299;28;20062;-78
2022/01/19 01:38:10;;;;;;;232.02;113.05;;;-2.60;99.90;;;;;;5080626;28;20041;-79
2022/01/19 01:40:39;;;;;;;227.55;112.22;;;-2.60;99.90;;;;;;5062517;28;20041;-79
2022/01/19 01:43:08;;;;;;;226.82;107.20;;;-2.70;99.90;;;;;;5064355;28;20064;-79
2022/01/19 01:45:40;;;;;;;191.90;91.15;;;-2.70;99.90;;;;;;5061390;28;20078;-78
2022/01/19 01:48:11;;;;;;;207.10;99.07;;;-2.80;99.90;;;;;;5068063;28;20102;-79
2022/01/19 01:53:41;;;;;;;222.60;107.35;;;-2.80;99.90;;;;;;5063091;28;20040;-79
2022/01/19 01:56:11;;;;;;;228.02;105.50;;;-2.70;99.90;;;;;;5062348;28;20041;-78
2022/01/19 01:58:42;;;;;;;210.82;102.35;;;-2.80;99.90;;;;;;5062695;28;20057;-78
2022/01/19 02:01:29;;;;;;;206.70;102.05;;;-2.70;99.90;;;;;;5079936;28;20040;-78
2022/01/19 02:03:59;;;;;;;201.40;95.93;;;-2.80;99.90;;;;;;5066424;28;20075;-77
2022/01/19 02:06:32;;;;;;;179.18;89.03;;;-2.80;99.90;;;;;;5068178;28;20159;-78
2022/01/19 02:09:19;;;;;;;175.27;88.18;;;-2.80;99.90;;;;;;5060122;28;20052;-78
2022/01/19 02:23:23;;;;;;;219.07;107.60;;;-3.00;99.90;;;;;;5025308;28;20142;-78
2022/01/19 02:25:53;;;;;;;207.52;99.10;;;-2.90;99.90;;;;;;5002536;28;20050;-78
2022/01/19 02:31:47;;;;;;;220.80;109.18;;;-2.80;99.90;;;;;;5059815;28;20140;-78
2022/01/19 02:42:37;;;;;;;188.32;93.00;;;-3.20;99.90;;;;;;5061203;28;20068;-77
2022/01/19 02:50:36;;;;;;;142.32;71.10;;;-3.40;99.90;;;;;;5061000;28;20045;-78
2022/01/19 02:53:05;;;;;;;141.30;71.05;;;-3.40;99.90;;;;;;5060924;28;20057;-79
2022/01/19 02:55:35;;;;;;;145.50;73.25;;;-3.40;99.90;;;;;;5060979;28;20045;-77
2022/01/19 02:58:03;;;;;;;141.32;69.40;;;-3.40;99.90;;;;;;5061124;28;20044;-78
2022/01/19 03:08:48;;;;;;;153.88;77.68;;;-3.30;99.90;;;;;;5077366;28;20060;-79
2022/01/19 03:11:22;;;;;;;151.50;77.75;;;-3.30;99.90;;;;;;5092438;28;20058;-79
2022/01/19 03:13:50;;;;;;;154.95;81.45;;;-3.30;99.90;;;;;;5094241;28;20048;-77
2022/01/19 03:16:19;;;;;;;162.40;81.70;;;-3.30;99.90;;;;;;5090965;28;20121;-79
2022/01/19 03:18:48;;;;;;;158.43;77.65;;;-3.20;99.90;;;;;;5089522;28;20499;-78
2022/01/19 03:21:17;;;;;;;145.88;73.65;;;-3.30;99.90;;;;;;5087034;28;20113;-79
2022/01/19 03:23:46;;;;;;;147.43;68.93;;;-3.40;99.90;;;;;;5089326;28;20040;-80
2022/01/19 03:26:14;;;;;;;137.73;65.60;;;-3.50;99.90;;;;;;5089594;28;20048;-79
2022/01/19 03:29:00;;;;;;;;;;;-3.50;99.90;;;;;;5103805;28;20054;-79
2022/01/19 03:31:27;;;;;;;142.77;68.10;;;-3.40;99.90;;;;;;5085779;28;19927;-79
2022/01/19 03:33:55;;;;;;;144.77;71.05;;;-3.30;99.90;;;;;;5083121;28;20059;-78
2022/01/19 03:36:23;;;;;;;156.88;76.70;;;-3.30;99.90;;;;;;5083169;28;20516;-78
2022/01/19 03:38:53;;;;;;;161.85;77.20;;;-3.30;99.90;;;;;;5084346;28;20044;-78
2022/01/19 03:41:20;;;;;;;177.63;81.75;;;-3.20;99.90;;;;;;5084290;28;20047;-77
2022/01/19 03:43:48;;;;;;;184.70;86.78;;;-3.20;99.90;;;;;;5083782;28;20052;-79
2022/01/19 03:46:21;;;;;;;193.68;90.13;;;-3.30;99.90;;;;;;5083904;28;20098;-77
2022/01/19 03:48:55;;;;;;;192.18;90.32;;;-3.40;99.90;;;;;;5084091;28;20044;-78
2022/01/19 03:51:23;;;;;;;181.05;87.43;;;-3.50;99.90;;;;;;5084489;28;20499;-78
2022/01/19 03:53:53;;;;;;;195.27;93.57;;;-3.70;99.90;;;;;;5082172;28;20419;-78
2022/01/19 03:56:21;;;;;;;182.60;86.45;;;-3.60;99.90;;;;;;5082955;28;20067;-79
2022/01/19 03:58:48;;;;;;;182.30;84.45;;;-3.50;99.90;;;;;;5082681;28;20131;-78
2022/01/19 04:01:17;;;;;;;158.43;79.43;;;-3.50;99.90;;;;;;5081698;28;20044;-77
2022/01/19 04:09:25;;;;;;;145.07;76.15;;;-3.80;99.90;;;;;;5095912;28;20048;-77
2022/01/19 04:11:55;;;;;;;146.60;78.18;;;-3.70;99.90;;;;;;5083169;28;20048;-78
2022/01/19 04:14:23;;;;;;;162.27;83.57;;;-3.60;99.90;;;;;;5100253;28;20066;-79
2022/01/19 04:16:52;;;;;;;157.70;78.85;;;-3.60;99.90;;;;;;5081091;28;20135;-78
2022/01/19 04:19:27;;;;;;;162.18;79.05;;;-3.70;99.90;;;;;;5080940;28;20048;-78
2022/01/19 04:22:04;;;;;;;151.55;76.20;;;-3.70;99.90;;;;;;5080831;28;20040;-79
2022/01/19 04:24:35;;;;;;;140.98;71.38;;;-3.60;99.90;;;;;;5083088;28;20048;-79
2022/01/19 04:30:01;;;;;;;163.70;78.85;;;-3.60;99.90;;;;;;5080764;28;20506;-78
2022/01/19 04:32:40;;;;;;;169.40;84.97;;;-3.60;99.90;;;;;;5082402;28;20044;-78
2022/01/19 04:35:10;;;;;;;177.82;88.50;;;-3.60;99.90;;;;;;5099597;28;20066;-79
2022/01/19 04:46:20;;;;;;;129.45;60.15;;;-3.70;99.90;;;;;;5087177;28;20451;-78
2022/01/19 04:49:14;;;;;;;140.52;71.32;;;-3.70;99.90;;;;;;5085031;28;20388;-79
2022/01/19 04:54:51;;;;;;;171.38;86.28;;;-3.70;99.90;;;;;;5085109;28;20066;-79
2022/01/19 05:03:29;;;;;;;174.68;85.35;;;-3.80;99.90;;;;;;5074344;28;20121;-78
2022/01/19 05:06:08;;;;;;;161.90;79.78;;;-3.70;99.90;;;;;;5082044;28;20055;-79
2022/01/19 05:08:57;;;;;;;171.27;81.32;;;-3.70;99.90;;;;;;5082378;28;20074;-78
2022/01/19 05:14:14;;;;;;;190.13;91.10;;;-3.80;99.90;;;;;;5083468;28;20040;-79
2022/01/19 05:16:41;;;;;;;210.02;101.57;;;-3.70;99.90;;;;;;5100748;28;20064;-77
2022/01/19 05:19:09;;;;;;;216.38;101.25;;;-3.70;99.90;;;;;;5083279;28;20044;-78
2022/01/19 05:21:39;;;;;;;214.98;102.55;;;-3.70;99.90;;;;;;5081844;28;20127;-78
2022/01/19 05:24:13;;;;;;;194.07;90.65;;;-3.70;99.90;;;;;;5100059;28;20040;-79
2022/01/19 05:26:55;;;;;;;195.85;92.50;;;-3.70;99.90;;;;;;5082240;28;20044;-77
2022/01/19 05:29:33;;;;;;;200.23;97.88;;;-3.80;99.90;;;;;;5083265;28;20126;-79
2022/01/19 05:32:00;;;;;;;189.20;92.55;;;-3.80;99.90;;;;;;5082912;28;20040;-78
2022/01/19 05:34:28;;;;;;;194.50;97.05;;;-3.90;99.90;;;;;;5079770;28;20052;-79
2022/01/19 05:37:06;;;;;;;171.13;84.35;;;-4.00;99.90;;;;;;5081153;28;20056;-79
2022/01/19 05:40:07;;;;;;;173.35;90.65;;;-4.00;99.90;;;;;;5093673;28;20609;-80
2022/01/19 05:42:54;;;;;;;182.00;93.90;;;-4.00;99.90;;;;;;5103773;28;20509;-78
2022/01/19 05:45:24;;;;;;;169.35;88.82;;;-4.10;99.90;;;;;;5085506;28;20044;-79
2022/01/19 05:47:53;;;;;;;165.77;81.10;;;-4.10;99.90;;;;;;5085161;28;20056;-78
2022/01/19 05:50:20;;;;;;;141.77;72.63;;;-4.00;99.90;;;;;;5105313;28;20040;-77
2022/01/19 05:52:56;;;;;;;187.82;93.13;;;-4.00;99.90;;;;;;5086996;28;20036;-79
2022/01/19 05:55:24;;;;;;;198.45;101.20;;;-3.90;99.90;;;;;;5087585;28;20051;-77
2022/01/19 05:57:52;;;;;;;244.50;121.72;;;-3.90;99.90;;;;;;5085961;28;20611;-79
2022/01/19 06:00:20;;;;;;;262.13;132.25;;;-4.00;99.90;;;;;;5087562;28;20044;-79
2022/01/19 06:02:52;;;;;;;264.70;133.70;;;-3.90;99.90;;;;;;5104898;28;20044;-78
2022/01/19 06:05:40;;;;;;;264.70;136.50;;;-3.90;99.90;;;;;;5104818;28;20076;-78
2022/01/19 06:08:40;;;;;;;306.58;158.65;;;-3.90;99.90;;;;;;5085865;28;20052;-78
2022/01/19 06:11:09;;;;;;;322.55;157.60;;;-3.90;99.90;;;;;;5103759;28;20044;-79
2022/01/19 06:13:50;;;;;;;263.02;130.20;;;-4.00;99.90;;;;;;5087298;28;20071;-80
2022/01/19 06:16:18;;;;;;;270.10;136.65;;;-4.00;99.90;;;;;;5083929;28;20052;-77
2022/01/19 06:18:47;;;;;;;266.63;127.63;;;-4.00;99.90;;;;;;5083505;28;20067;-78
2022/01/19 06:21:16;;;;;;;232.52;115.18;;;-4.00;99.90;;;;;;5083910;28;20048;-78
2022/01/19 06:23:48;;;;;;;237.07;117.90;;;-4.00;99.90;;;;;;5085271;28;20105;-77
2022/01/19 06:26:18;;;;;;;276.27;138.80;;;-4.00;99.90;;;;;;5085825;28;20086;-78
2022/01/19 06:28:46;;;;;;;285.42;143.75;;;-4.00;99.90;;;;;;5085397;28;20124;-79
2022/01/19 06:31:14;;;;;;;244.23;121.93;;;-4.00;99.90;;;;;;5104118;28;20044;-80
2022/01/19 06:33:42;;;;;;;293.10;143.93;;;-4.00;99.90;;;;;;5086918;28;20076;-79
2022/01/19 06:36:12;;;;;;;282.02;143.18;;;-4.00;99.90;;;;;;5086806;28;20079;-77
2022/01/19 06:38:52;;;;;;;283.80;139.35;;;-4.00;99.90;;;;;;5083388;28;20044;-78
2022/01/19 06:41:42;;;;;;;287.67;143.63;;;-4.00;99.90;;;;;;5093955;28;20056;-79
2022/01/19 06:44:12;;;;;;;271.90;137.23;;;-4.00;99.90;;;;;;5081226;28;20101;-78
2022/01/19 06:46:39;;;;;;;287.98;143.90;;;-3.90;99.90;;;;;;5083553;28;20117;-78
2022/01/19 06:49:07;;;;;;;315.10;152.73;;;-3.90;99.90;;;;;;5084476;28;20135;-79
2022/01/19 06:51:38;;;;;;;365.15;180.63;;;-3.80;99.90;;;;;;5085119;28;20097;-78
2022/01/19 06:54:07;;;;;;;384.23;189.77;;;-3.80;99.90;;;;;;5084749;28;20526;-77
2022/01/19 06:56:37;;;;;;;339.00;170.00;;;-3.70;99.90;;;;;;5084441;28;20056;-78
2022/01/19 06:59:25;;;;;;;366.23;183.80;;;-3.60;99.90;;;;;;5108883;28;20080;-78
2022/01/19 07:02:11;;;;;;;358.20;179.10;;;-3.50;99.90;;;;;;5104380;28;20066;-77
2022/01/19 07:04:50;;;;;;;357.40;181.23;;;-3.40;99.90;;;;;;5083710;28;20517;-78
2022/01/19 07:07:39;;;;;;;360.27;178.93;;;-3.20;99.90;;;;;;5104432;28;20048;-78
2022/01/19 07:10:08;;;;;;;323.95;157.82;;;-3.20;99.90;;;;;;5087146;28;20127;-80
2022/01/19 07:12:38;;;;;;;336.50;155.55;;;-3.10;99.90;;;;;;5091959;28;20040;-80
2022/01/19 07:15:08;;;;;;;328.95;155.10;;;-3.00;99.90;;;;;;5087876;28;20052;-77
2022/01/19 07:17:36;;;;;;;322.38;146.95;;;-2.90;99.90;;;;;;5086660;28;20052;-79
2022/01/19 07:20:04;;;;;;;316.63;150.10;;;-3.00;99.90;;;;;;5081391;28;20502;-78
2022/01/19 07:22:32;;;;;;;298.67;141.45;;;-2.90;99.90;;;;;;5075554;28;20055;-79
2022/01/19 07:25:05;;;;;;;314.95;146.98;;;-2.70;99.90;;;;;;5097939;28;20418;-79
2022/01/19 07:27:33;;;;;;;320.13;145.05;;;-2.70;99.90;;;;;;5081147;28;20101;-79
2022/01/19 07:30:05;;;;;;;292.08;140.80;;;-2.70;99.90;;;;;;5080559;28;20173;-77
2022/01/19 07:32:34;;;;;;;297.20;142.85;;;-2.60;99.90;;;;;;5083440;28;20051;-80
2022/01/19 07:35:03;;;;;;;297.08;141.25;;;-2.50;99.90;;;;;;5080010;28;20044;-79
2022/01/19 07:37:31;;;;;;;325.83;148.13;;;-2.40;99.90;;;;;;5082623;28;20135;-78
2022/01/19 07:40:00;;;;;;;331.23;158.20;;;-2.20;99.90;;;;;;5080676;28;20540;-79
2022/01/19 07:42:29;;;;;;;314.95;153.57;;;-2.10;99.90;;;;;;5081150;28;20067;-78
2022/01/19 07:45:23;;;;;;;345.38;170.32;;;-2.00;99.90;;;;;;5099773;28;20111;-78
2022/01/19 07:48:16;;;;;;;347.00;172.35;;;-1.80;99.90;;;;;;5084549;28;20134;-77
2022/01/19 07:50:47;;;;;;;349.75;176.13;;;-1.80;99.90;;;;;;5093525;28;20047;-80
2022/01/19 07:53:35;;;;;;;338.58;167.45;;;-1.60;99.90;;;;;;5098154;28;20070;-80
2022/01/19 07:56:29;;;;;;;328.55;156.85;;;-1.50;99.90;;;;;;5100201;28;20048;-80
2022/01/19 07:59:12;;;;;;;326.50;157.00;;;-1.30;99.90;;;;;;5089758;28;20052;-78
2022/01/19 08:01:56;;;;;;;308.70;150.73;;;-1.30;99.90;;;;;;5091850;28;20048;-77
2022/01/19 08:04:44;;;;;;;322.10;156.77;;;-1.30;99.90;;;;;;5109796;28;20052;-78
2022/01/19 08:07:15;;;;;;;301.35;146.88;;;-1.30;99.90;;;;;;5088747;28;20060;-77
2022/01/19 08:09:43;;;;;;;302.30;149.27;;;-1.20;99.90;;;;;;5102661;28;20150;-78
2022/01/19 08:12:11;;;;;;;308.10;147.93;;;-1.00;99.90;;;;;;5091520;28;20039;-77
2022/01/19 08:14:45;;;;;;;261.08;128.82;;;-0.90;99.90;;;;;;5094386;28;20032;-79
2022/01/19 08:17:19;;;;;;;280.80;136.90;;;-0.80;99.90;;;;;;5091940;28;20075;-78
2022/01/19 08:19:48;;;;;;;242.13;123.50;;;-0.70;99.90;;;;;;5088583;28;20052;-77
2022/01/19 08:22:16;;;;;;;277.85;129.27;;;-0.60;99.90;;;;;;5109502;28;20109;-78
2022/01/19 08:25:05;;;;;;;346.10;149.43;;;-0.40;99.90;;;;;;5098402;28;20074;-77
2022/01/19 08:27:32;;;;;;;330.80;147.30;;;-0.40;99.90;;;;;;5102664;28;20052;-77
2022/01/19 08:30:06;;;;;;;317.27;141.23;;;-0.40;99.90;;;;;;5097395;28;20044;-78
2022/01/19 08:32:35;;;;;;;315.77;142.88;;;-0.30;99.90;;;;;;5081122;28;20044;-79
2022/01/19 08:35:18;;;;;;;310.70;141.13;;;-0.20;99.90;;;;;;5098419;28;20491;-79
2022/01/19 08:37:57;;;;;;;300.58;134.32;;;-0.20;99.90;;;;;;5100953;28;20131;-78
2022/01/19 08:40:29;;;;;;;296.85;130.98;;;-0.10;99.90;;;;;;5103617;28;20521;-78
2022/01/19 08:43:09;;;;;;;259.48;118.20;;;0.10;99.90;;;;;;5096540;28;20055;-77
2022/01/19 08:45:38;;;;;;;236.73;110.85;;;0.40;99.90;;;;;;5077641;28;20044;-78
2022/01/19 08:48:06;;;;;;;230.80;107.28;;;0.60;99.90;;;;;;5094380;28;20134;-77
2022/01/19 08:50:50;;;;;;;224.35;99.13;;;0.70;99.90;;;;;;5075948;28;20063;-75
2022/01/19 08:53:36;;;;;;;214.45;97.38;;;0.80;99.90;;;;;;5095599;28;20046;-75
2022/01/19 08:56:22;;;;;;;180.50;84.80;;;0.90;99.90;;;;;;5076139;28;20143;-78
2022/01/19 08:58:49;;;;;;;216.20;98.90;;;0.90;99.90;;;;;;5095416;28;20059;-77
2022/01/19 09:01:18;;;;;;;217.38;93.90;;;0.90;99.90;;;;;;5094736;28;20231;-77
2022/01/19 09:03:46;;;;;;;191.98;85.03;;;1.00;99.90;;;;;;5093816;28;20036;-76
2022/01/19 09:06:13;;;;;;;202.65;85.03;;;1.10;99.90;;;;;;5094149;28;20044;-77
2022/01/19 09:08:41;;;;;;;167.50;73.25;;;1.10;99.90;;;;;;5094544;28;20047;-76
2022/01/19 09:11:10;;;;;;;153.98;67.70;;;1.30;99.90;;;;;;5094801;28;20052;-77
2022/01/19 09:13:37;;;;;;;142.15;63.92;;;1.40;99.90;;;;;;5102333;28;20044;-78
2022/01/19 09:16:05;;;;;;;133.50;59.55;;;1.50;99.90;;;;;;5093957;28;20063;-78
2022/01/19 09:18:34;;;;;;;107.63;47.15;;;1.60;99.90;;;;;;5089049;28;20040;-78
2022/01/19 09:21:02;;;;;;;94.63;43.67;;;1.60;99.90;;;;;;5074413;28;20040;-77
2022/01/19 09:23:30;;;;;;;91.55;38.88;;;1.70;99.90;;;;;;5076745;28;20052;-78
2022/01/19 09:25:58;;;;;;;73.55;31.63;;;1.80;99.90;;;;;;5092795;28;20074;-78
2022/01/19 09:28:26;;;;;;;90.70;39.15;;;1.90;99.90;;;;;;5076025;28;20082;-77
2022/01/19 09:30:56;;;;;;;118.15;48.88;;;2.10;99.90;;;;;;5076564;28;20055;-77
2022/01/19 09:33:25;;;;;;;101.35;45.45;;;2.20;99.90;;;;;;5094295;28;20055;-77
2022/01/19 09:36:06;;;;;;;104.15;45.50;;;2.40;99.90;;;;;;5075995;28;20056;-77
2022/01/19 09:38:37;;;;;;;103.32;45.67;;;2.50;99.90;;;;;;5095628;28;20043;-76
2022/01/19 09:41:06;;;;;;;110.03;50.25;;;2.60;99.90;;;;;;5094552;28;20085;-78
2022/01/19 09:43:35;;;;;;;98.38;45.58;;;2.70;99.90;;;;;;5093855;28;20449;-78
2022/01/19 09:46:03;;;;;;;113.93;49.65;;;2.90;99.90;;;;;;5075109;28;20040;-76
2022/01/19 09:48:31;;;;;;;117.72;50.70;;;3.10;99.90;;;;;;5093144;28;20068;-79
2022/01/19 09:51:00;;;;;;;99.82;46.28;;;3.10;99.90;;;;;;5077682;28;20417;-80
2022/01/19 09:53:27;;;;;;;81.25;40.75;;;3.20;99.90;;;;;;5096003;28;20043;-77
2022/01/19 09:55:55;;;;;;;84.80;41.63;;;3.30;99.90;;;;;;5095356;28;20042;-80
2022/01/19 09:58:23;;;;;;;75.07;34.42;;;3.30;99.90;;;;;;5095750;28;20490;-81
2022/01/19 10:00:51;;;;;;;76.57;36.25;;;3.40;99.90;;;;;;5096842;28;20127;-80
2022/01/19 10:03:20;;;;;;;78.00;36.30;;;3.50;99.90;;;;;;5078084;28;20070;-78
2022/01/19 10:06:02;;;;;;;81.57;34.40;;;3.60;99.90;;;;;;5079575;28;20155;-79
2022/01/19 10:08:32;;;;;;;70.07;32.40;;;3.70;99.90;;;;;;5092469;28;20106;-76
2022/01/19 10:11:13;;;;;;;74.07;33.45;;;3.80;99.90;;;;;;5094310;28;20497;-78
2022/01/19 10:19:19;;;;;;;90.05;36.53;;;4.30;99.90;;;;;;5075048;28;20518;-79
2022/01/19 10:21:59;;;;;;;86.88;38.55;;;4.50;99.90;;;;;;5093899;28;20043;-77
2022/01/19 10:24:46;;;;;;;75.25;35.33;;;4.60;99.90;;;;;;5077004;28;20043;-78
2022/01/19 10:27:23;;;;;;;73.38;35.13;;;4.60;99.90;;;;;;5078623;28;20052;-78
2022/01/19 10:29:53;;;;;;;73.43;34.72;;;4.60;99.90;;;;;;5099804;28;20059;-79
2022/01/19 10:32:22;;;;;;;72.13;35.83;;;4.60;99.90;;;;;;5100067;28;20101;-79
2022/01/19 10:34:51;;;;;;;80.18;36.65;;;4.70;99.90;;;;;;5099770;28;20050;-79
2022/01/19 10:37:26;;;;;;;76.93;38.03;;;4.90;99.90;;;;;;5081319;28;20495;-77
2022/01/19 10:39:57;;;;;;;74.60;32.65;;;4.90;99.90;;;;;;5100195;28;20127;-78
2022/01/19 10:42:27;;;;;;;70.55;29.35;;;4.90;99.90;;;;;;5100509;28;20048;-79
2022/01/19 10:44:56;;;;;;;56.60;29.65;;;5.00;99.90;;;;;;5105422;28;20044;-78
2022/01/19 10:47:48;;;;;;;60.78;29.55;;;5.00;99.90;;;;;;5085232;28;20048;-79
2022/01/19 10:50:22;;;;;;;57.50;28.30;;;5.10;99.90;;;;;;5109605;28;20513;-78
2022/01/19 10:52:53;;;;;;;51.88;24.75;;;5.40;99.90;;;;;;5094149;28;20028;-78
2022/01/19 10:55:30;;;;;;;63.70;24.88;;;5.40;99.90;;;;;;5094843;28;20087;-78
2022/01/19 10:58:00;;;;;;;43.50;20.90;;;5.50;99.90;;;;;;5094067;28;20491;-77
2022/01/19 11:00:30;;;;;;;50.10;20.50;;;5.60;99.90;;;;;;5109955;28;20048;-79
2022/01/19 11:03:13;;;;;;;48.63;20.13;;;5.50;99.90;;;;;;5092168;28;20059;-77
2022/01/19 11:05:43;;;;;;;40.75;20.00;;;5.50;99.90;;;;;;5092715;28;20082;-76
2022/01/19 11:08:12;;;;;;;45.58;20.63;;;5.50;99.90;;;;;;5092182;28;20044;-78
2022/01/19 11:10:40;;;;;;;50.63;23.55;;;5.60;99.90;;;;;;5110624;28;20075;-79
2022/01/19 11:13:13;;;;;;;56.22;25.75;;;5.70;99.90;;;;;;5093741;28;20044;-77
2022/01/19 11:15:41;;;;;;;47.92;20.90;;;5.80;99.90;;;;;;5092126;28;20048;-77
2022/01/19 11:18:09;;;;;;;34.03;17.83;;;5.90;99.90;;;;;;5105450;28;20051;-75
2022/01/19 11:20:43;;;;;;;39.75;19.23;;;5.80;99.90;;;;;;5105455;28;20052;-77
2022/01/19 11:23:24;;;;;;;41.87;18.57;;;5.90;99.90;;;;;;5099294;28;20040;-79
2022/01/19 11:25:57;;;;;;;41.88;19.45;;;6.10;99.90;;;;;;5080433;28;20048;-78
2022/01/19 11:28:33;;;;;;;41.40;18.98;;;6.20;99.90;;;;;;5082463;28;20411;-78
2022/01/19 11:31:02;;;;;;;39.05;17.83;;;6.20;99.90;;;;;;5098630;28;20101;-77
2022/01/19 11:33:31;;;;;;;30.38;13.93;;;6.20;99.90;;;;;;5098648;28;20070;-78
2022/01/19 11:36:02;;;;;;;34.05;14.02;;;6.30;99.90;;;;;;5079570;28;20047;-78
2022/01/19 11:38:49;;;;;;;32.78;13.82;;;6.20;99.50;;;;;;5095548;28;20047;-78
2022/01/19 11:41:39;;;;;;;28.98;13.65;;;6.10;99.00;;;;;;5098203;28;20040;-78
2022/01/19 11:44:07;;;;;;;30.60;13.00;;;6.10;99.40;;;;;;5079841;28;20497;-78
2022/01/19 11:46:39;;;;;;;28.08;12.77;;;6.20;98.60;;;;;;5079935;28;20131;-77
2022/01/19 11:49:09;;;;;;;29.15;12.20;;;6.30;97.70;;;;;;5097146;28;20051;-77
2022/01/19 11:51:38;;;;;;;32.33;14.00;;;6.40;97.00;;;;;;5097102;28;20044;-78
2022/01/19 11:54:10;;;;;;;36.88;14.80;;;6.30;97.00;;;;;;5078735;28;20036;-79
2022/01/19 11:57:12;;;;;;;30.60;12.85;;;6.40;96.60;;;;;;5096828;28;20044;-78
2022/01/19 12:00:19;;;;;;;31.98;13.60;;;6.40;95.50;;;;;;5035622;28;20055;-76
2022/01/19 12:02:54;;;;;;;29.08;14.43;;;6.50;95.00;;;;;;5035404;28;20045;-79
2022/01/19 12:05:31;;;;;;;29.95;13.35;;;6.50;94.20;;;;;;5018212;28;20050;-78
2022/01/19 12:08:01;;;;;;;30.67;14.02;;;6.50;94.10;;;;;;5034119;28;20060;-78
2022/01/19 12:10:48;;;;;;;30.80;14.68;;;6.50;94.50;;;;;;5024820;28;20076;-81
2022/01/19 12:13:57;;;;;;;29.38;14.60;;;6.60;94.30;;;;;;5026113;28;20046;-81
2022/01/19 12:16:34;;;;;;;24.98;12.57;;;6.60;93.90;;;;;;5052471;28;20113;-81
2022/01/19 12:19:14;;;;;;;29.27;12.35;;;6.70;93.30;;;;;;5046726;28;20080;-79
2022/01/19 12:21:48;;;;;;;24.65;12.05;;;6.70;92.20;;;;;;5051742;28;20164;-80
2022/01/19 12:24:29;;;;;;;26.13;12.45;;;6.70;91.80;;;;;;5041572;28;20056;-80
2022/01/19 12:27:06;;;;;;;24.88;12.57;;;6.70;91.30;;;;;;5042884;28;20226;-80
2022/01/19 12:29:41;;;;;;;27.02;11.98;;;6.70;91.60;;;;;;5042917;28;20049;-80
2022/01/19 12:32:10;;;;;;;30.27;15.15;;;6.70;91.00;;;;;;5042174;28;20053;-79
2022/01/19 12:34:43;;;;;;;25.73;13.88;;;6.70;90.90;;;;;;5095729;28;20144;-81
2022/01/19 12:37:11;;;;;;;27.88;13.80;;;6.70;90.90;;;;;;5085909;28;20058;-80
2022/01/19 12:39:44;;;;;;;33.22;15.45;;;6.70;91.10;;;;;;5103009;28;20052;-79
2022/01/19 12:42:18;;;;;;;35.88;16.30;;;6.70;91.20;;;;;;5086887;28;20495;-79
2022/01/19 12:44:48;;;;;;;32.67;15.38;;;6.70;91.70;;;;;;5106297;28;20096;-80
2022/01/19 12:47:45;;;;;;;31.50;16.30;;;6.70;91.40;;;;;;5110067;28;20044;-80
2022/01/19 12:50:49;;;;;;;38.25;14.65;;;6.80;91.70;;;;;;5112619;28;20048;-81
2022/01/19 12:53:22;;;;;;;33.05;17.95;;;6.90;91.80;;;;;;5023377;28;20081;-80
2022/01/19 12:55:53;;;;;;;37.03;16.45;;;6.90;91.90;;;;;;5020724;28;20049;-78
2022/01/19 12:58:32;;;;;;;41.53;17.55;;;6.90;91.80;;;;;;5003606;28;20049;-80
2022/01/19 13:01:02;;;;;;;34.58;18.45;;;7.00;91.80;;;;;;5004174;28;20112;-78
2022/01/19 13:03:33;;;;;;;30.85;15.98;;;7.00;92.00;;;;;;5020233;28;20053;-79
2022/01/19 13:06:03;;;;;;;37.88;17.65;;;7.00;91.20;;;;;;5019848;28;20136;-81
2022/01/19 13:08:45;;;;;;;44.65;20.75;;;7.10;91.10;;;;;;5020123;28;20092;-80
2022/01/19 13:11:21;;;;;;;33.20;17.75;;;7.10;91.70;;;;;;5004264;28;20065;-79
2022/01/19 13:13:54;;;;;;;36.63;16.40;;;7.00;91.80;;;;;;5019697;28;20057;-78
2022/01/19 13:16:40;;;;;;;28.45;13.70;;;7.00;91.00;;;;;;5020306;28;20045;-79
2022/01/19 13:19:16;;;;;;;18.05;7.82;;;7.10;89.10;;;;;;5019627;28;20056;-79
2022/01/19 13:21:44;;;;;;;;;;;7.10;80.40;;;;;;5003170;28;20049;-80
2022/01/19 13:24:17;;;;;;;29.85;14.38;;;7.10;84.10;;;;;;5062959;28;20545;-81
2022/01/19 13:26:50;;;;;;;29.02;14.02;;;7.10;87.20;;;;;;5096470;28;20051;-79
2022/01/19 13:29:25;;;;;;;38.25;15.10;;;7.10;88.60;;;;;;5101387;28;20036;-80
2022/01/19 13:32:05;;;;;;;35.80;14.88;;;7.20;88.00;;;;;;5063792;28;20087;-80
2022/01/19 13:34:35;;;;;;;34.00;15.50;;;7.20;88.60;;;;;;5097535;28;20070;-81
2022/01/19 13:37:04;;;;;;;30.65;16.20;;;7.20;88.70;;;;;;5089484;28;20044;-79
2022/01/19 13:39:33;;;;;;;37.90;16.05;;;7.20;89.20;;;;;;5100545;28;20051;-80
2022/01/19 13:42:03;;;;;;;34.38;16.15;;;7.20;90.00;;;;;;5083174;28;20048;-81
2022/01/19 13:44:37;;;;;;;33.58;16.90;;;7.10;88.70;;;;;;5100423;28;20032;-79
2022/01/19 13:47:11;;;;;;;49.13;19.77;;;7.20;89.90;;;;;;5102022;28;20051;-81
2022/01/19 13:49:52;;;;;;;43.42;19.70;;;7.20;90.70;;;;;;5099510;28;20049;-81
2022/01/19 13:52:22;;;;;;;38.05;17.77;;;7.10;91.40;;;;;;5100540;28;20145;-79
2022/01/19 13:54:50;;;;;;;42.78;19.77;;;7.10;90.90;;;;;;5100849;28;20183;-80
2022/01/19 13:57:28;;;;;;;44.25;21.70;;;7.00;91.00;;;;;;5111305;28;20044;-80
2022/01/19 14:00:09;;;;;;;41.70;20.63;;;7.00;91.40;;;;;;5112257;28;20087;-81
2022/01/19 14:02:37;;;;;;;35.28;19.27;;;7.00;91.10;;;;;;5112796;28;20048;-79
2022/01/19 14:05:06;;;;;;;40.13;19.48;;;7.00;91.60;;;;;;5115681;28;20028;-79